createdAt,value
2019-03-18T00:00:27.799Z,53.00
2019-03-18T00:02:56.841Z,60.10
2019-03-18T00:05:25.707Z,59.53
2019-03-18T00:07:54.657Z,54.13
2019-03-18T00:10:23.491Z,56.23
2019-03-18T00:12:52.447Z,58.50
2019-03-18T00:15:21.353Z,64.43
2019-03-18T00:17:50.195Z,60.63
2019-03-18T00:20:19.064Z,48.93
2019-03-18T00:22:47.945Z,47.57
2019-03-18T00:25:16.882Z,44.77
2019-03-18T00:27:46.032Z,40.40
2019-03-18T00:30:19.202Z,40.53
2019-03-18T00:32:48.153Z,39.77
2019-03-18T00:35:17.004Z,41.83
2019-03-18T00:37:45.902Z,38.23
2019-03-18T00:40:19.823Z,38.63
2019-03-18T00:42:48.663Z,38.30
2019-03-18T00:45:17.669Z,41.40
2019-03-18T00:47:46.494Z,50.80
2019-03-18T00:50:17.119Z,54.87
2019-03-18T00:52:46.138Z,47.83
2019-03-18T00:55:14.977Z,46.13
2019-03-18T00:57:43.829Z,66.90
2019-03-18T01:00:14.884Z,57.57
2019-03-18T01:02:43.746Z,51.33
2019-03-18T01:05:12.613Z,39.37
2019-03-18T01:07:41.491Z,36.73
2019-03-18T01:10:18.090Z,48.17
2019-03-18T01:12:47.017Z,51.97
2019-03-18T01:15:27.593Z,42.63
2019-03-18T01:17:46.331Z,38.60
2019-03-18T01:20:15.612Z,38.27
2019-03-18T01:22:44.494Z,31.33
2019-03-18T01:25:13.530Z,27.90
2019-03-18T01:27:42.427Z,28.50
2019-03-18T01:30:12.862Z,30.30
2019-03-18T01:32:41.719Z,27.50
2019-03-18T01:35:11.420Z,27.63
2019-03-18T01:37:40.264Z,26.10
2019-03-18T01:40:11.585Z,26.63
2019-03-18T01:42:40.466Z,22.57
2019-03-18T01:45:10.407Z,24.00
2019-03-18T01:47:39.254Z,23.80
2019-03-18T01:50:15.190Z,26.93
2019-03-18T01:52:44.032Z,24.10
2019-03-18T01:55:12.974Z,26.27
2019-03-18T01:58:01.148Z,24.90
2019-03-18T02:03:12.213Z,22.23
2019-03-18T02:05:41.055Z,22.10
2019-03-18T02:08:09.912Z,24.27
2019-03-18T02:10:38.805Z,26.13
2019-03-18T02:13:07.694Z,28.83
2019-03-18T02:15:36.528Z,28.93
2019-03-18T02:18:05.416Z,28.57
2019-03-18T02:20:34.250Z,27.83
2019-03-18T02:23:03.099Z,23.93
2019-03-18T02:25:31.996Z,23.43
2019-03-18T02:28:00.848Z,25.87
2019-03-18T02:30:29.721Z,24.27
2019-03-18T02:32:58.667Z,25.93
2019-03-18T02:35:27.489Z,33.97
2019-03-18T02:37:56.322Z,32.03
2019-03-18T02:40:25.212Z,24.63
2019-03-18T02:42:54.066Z,30.67
2019-03-18T02:45:24.670Z,21.53
2019-03-18T02:47:53.448Z,19.33
2019-03-18T02:50:22.308Z,19.00
2019-03-18T02:52:51.155Z,20.90
2019-03-18T02:55:20.087Z,21.97
2019-03-18T02:57:48.940Z,21.77
2019-03-18T03:00:17.800Z,20.63
2019-03-18T03:02:46.712Z,20.60
2019-03-18T03:05:16.140Z,22.60
2019-03-18T03:07:44.999Z,24.60
2019-03-18T03:10:14.879Z,26.73
2019-03-18T03:12:43.760Z,37.47
2019-03-18T03:15:13.892Z,33.20
2019-03-18T03:17:43.021Z,25.03
2019-03-18T03:20:11.966Z,22.73
2019-03-18T03:22:40.806Z,21.47
2019-03-18T03:25:10.896Z,21.17
2019-03-18T03:27:39.715Z,18.33
2019-03-18T03:30:14.643Z,19.63
2019-03-18T03:32:43.700Z,20.03
2019-03-18T03:35:12.574Z,21.13
2019-03-18T03:37:41.479Z,21.03
2019-03-18T03:40:11.615Z,18.83
2019-03-18T03:42:40.550Z,18.93
2019-03-18T03:45:12.371Z,19.50
2019-03-18T03:47:41.212Z,20.03
2019-03-18T03:50:14.876Z,21.93
2019-03-18T03:52:43.813Z,25.03
2019-03-18T03:55:13.480Z,26.10
2019-03-18T03:57:42.433Z,22.23
2019-03-18T04:00:14.892Z,19.23
2019-03-18T04:02:43.720Z,20.43
2019-03-18T04:05:12.768Z,19.73
2019-03-18T04:07:41.745Z,19.70
2019-03-18T04:10:11.996Z,19.10
2019-03-18T04:12:40.848Z,19.40
2019-03-18T04:15:11.778Z,20.67
2019-03-18T04:17:40.608Z,19.27
2019-03-18T04:20:14.520Z,24.10
2019-03-18T04:22:43.392Z,25.03
2019-03-18T04:25:12.245Z,35.03
2019-03-18T04:27:41.906Z,54.43
2019-03-18T04:30:12.738Z,35.73
2019-03-18T04:32:41.671Z,26.63
2019-03-18T04:35:10.515Z,24.00
2019-03-18T04:37:39.412Z,30.43
2019-03-18T04:40:10.051Z,30.80
2019-03-18T04:42:38.895Z,34.13
2019-03-18T04:45:09.596Z,33.47
2019-03-18T04:47:38.452Z,30.20
2019-03-18T04:50:09.364Z,29.40
2019-03-18T04:52:38.280Z,28.13
2019-03-18T04:55:07.418Z,26.20
2019-03-18T04:57:36.254Z,26.80
2019-03-18T05:00:08.463Z,27.53
2019-03-18T05:02:37.326Z,28.60
2019-03-18T05:05:06.255Z,31.13
2019-03-18T05:07:35.163Z,30.53
2019-03-18T05:10:08.386Z,32.43
2019-03-18T05:12:37.246Z,30.83
2019-03-18T05:15:08.151Z,33.43
2019-03-18T05:17:37.003Z,30.50
2019-03-18T05:20:07.956Z,32.07
2019-03-18T05:22:36.864Z,38.13
2019-03-18T05:25:07.710Z,34.20
2019-03-18T05:27:36.622Z,37.63
2019-03-18T05:30:13.142Z,43.77
2019-03-18T05:32:41.992Z,46.07
2019-03-18T05:35:10.846Z,38.53
2019-03-18T05:37:39.757Z,37.67
2019-03-18T05:40:09.076Z,37.10
2019-03-18T05:42:37.883Z,33.07
2019-03-18T05:45:09.419Z,35.47
2019-03-18T05:47:39.556Z,37.57
2019-03-18T05:50:10.301Z,37.83
2019-03-18T05:52:39.294Z,38.70
2019-03-18T05:55:09.335Z,36.07
2019-03-18T05:57:38.177Z,40.17
2019-03-18T06:00:09.999Z,41.53
2019-03-18T06:02:38.849Z,42.43
2019-03-18T06:05:09.222Z,41.10
2019-03-18T06:07:38.446Z,44.07
2019-03-18T06:10:09.856Z,46.03
2019-03-18T06:12:38.815Z,49.23
2019-03-18T06:15:10.218Z,56.20
2019-03-18T06:17:51.219Z,61.93
2019-03-18T06:20:13.264Z,62.27
2019-03-18T06:22:42.150Z,61.07
2019-03-18T06:25:11.058Z,60.80
2019-03-18T06:27:39.954Z,63.40
2019-03-18T06:30:13.691Z,45.50
2019-03-18T06:32:42.537Z,48.57
2019-03-18T06:35:11.789Z,44.53
2019-03-18T06:37:40.770Z,43.87
2019-03-18T06:40:14.479Z,42.57
2019-03-18T06:42:43.398Z,41.27
2019-03-18T06:45:12.769Z,46.57
2019-03-18T06:47:41.708Z,44.87
2019-03-18T06:50:12.602Z,44.80
2019-03-18T06:52:41.437Z,45.37
2019-03-18T06:55:10.400Z,45.00
2019-03-18T06:57:39.292Z,46.70
2019-03-18T07:00:15.975Z,41.77
2019-03-18T07:02:44.863Z,48.93
2019-03-18T07:05:13.922Z,48.20
2019-03-18T07:07:42.790Z,48.07
2019-03-18T07:10:15.014Z,51.90
2019-03-18T07:12:43.872Z,50.70
2019-03-18T07:15:12.827Z,49.97
2019-03-18T07:17:41.725Z,53.00
2019-03-18T07:20:12.063Z,58.20
2019-03-18T07:22:40.957Z,56.83
2019-03-18T07:25:09.862Z,51.60
2019-03-18T07:27:38.706Z,45.20
2019-03-18T07:30:14.798Z,44.37
2019-03-18T07:32:43.738Z,54.70
2019-03-18T07:35:12.720Z,52.23
2019-03-18T07:37:41.635Z,57.03
2019-03-18T07:40:14.695Z,51.63
2019-03-18T07:42:43.560Z,51.83
2019-03-18T07:45:15.578Z,52.93
2019-03-18T07:47:43.911Z,43.67
2019-03-18T07:50:16.191Z,47.30
2019-03-18T07:52:45.146Z,39.78
2019-03-18T07:55:14.111Z,41.45
2019-03-18T07:57:42.959Z,37.58
2019-03-18T08:00:15.506Z,36.08
2019-03-18T08:02:44.307Z,40.90
2019-03-18T08:05:13.227Z,38.05
2019-03-18T08:07:42.126Z,39.65
2019-03-18T08:10:14.475Z,41.40
2019-03-18T08:12:43.330Z,34.50
2019-03-18T08:15:13.165Z,33.88
2019-03-18T08:17:42.190Z,33.83
2019-03-18T08:20:13.230Z,26.35
2019-03-18T08:22:42.138Z,10.23
2019-03-18T08:25:11.196Z,11.75
2019-03-18T08:27:40.040Z,20.10
2019-03-18T08:30:21.430Z,15.10
2019-03-18T08:32:50.293Z,13.98
2019-03-18T08:35:19.195Z,13.50
2019-03-18T08:37:48.917Z,8.55
2019-03-18T08:40:17.744Z,5.58
2019-03-18T08:42:46.591Z,7.50
2019-03-18T08:45:15.484Z,6.80
2019-03-18T08:47:44.348Z,5.53
2019-03-18T08:50:13.403Z,5.80
2019-03-18T08:52:42.330Z,5.50
2019-03-18T08:55:12.273Z,5.05
2019-03-18T08:57:41.119Z,4.65
2019-03-18T09:00:15.828Z,4.67
2019-03-18T09:02:44.668Z,5.20
2019-03-18T09:05:13.620Z,5.03
2019-03-18T09:07:42.550Z,6.12
2019-03-18T09:10:15.375Z,5.30
2019-03-18T09:12:44.262Z,5.00
2019-03-18T09:15:13.739Z,4.87
2019-03-18T09:17:42.593Z,4.28
2019-03-18T09:20:18.035Z,4.95
2019-03-18T09:22:46.868Z,3.80
2019-03-18T09:25:15.717Z,5.25
2019-03-18T09:27:44.645Z,4.00
2019-03-18T09:30:18.032Z,3.95
2019-03-18T09:32:47.118Z,6.37
2019-03-18T09:35:15.988Z,3.80
2019-03-18T09:37:44.821Z,5.55
2019-03-18T09:40:17.634Z,4.83
2019-03-18T09:42:46.679Z,5.28
2019-03-18T09:45:16.510Z,3.92
2019-03-18T09:47:45.346Z,3.47
2019-03-18T09:50:14.761Z,4.67
2019-03-18T09:52:43.694Z,4.53
2019-03-18T09:55:12.861Z,4.97
2019-03-18T09:57:41.745Z,4.58
2019-03-18T10:00:15.763Z,4.47
2019-03-18T10:02:44.760Z,4.50
2019-03-18T10:05:13.590Z,5.53
2019-03-18T10:07:42.445Z,4.33
2019-03-18T10:10:13.038Z,5.08
2019-03-18T10:12:41.876Z,4.03
2019-03-18T10:15:13.660Z,3.55
2019-03-18T10:17:42.535Z,3.20
2019-03-18T10:20:11.402Z,4.25
2019-03-18T10:22:40.280Z,4.55
2019-03-18T10:25:09.352Z,4.00
2019-03-18T10:27:38.246Z,5.33
2019-03-18T10:30:14.546Z,4.40
2019-03-18T10:32:43.374Z,4.87
2019-03-18T10:35:12.514Z,5.00
2019-03-18T10:37:41.399Z,4.70
2019-03-18T10:40:14.913Z,4.43
2019-03-18T10:42:43.771Z,5.13
2019-03-18T10:45:13.698Z,4.27
2019-03-18T10:47:42.638Z,4.13
2019-03-18T10:50:13.844Z,4.30
2019-03-18T10:52:42.748Z,3.93
2019-03-18T10:55:11.717Z,3.80
2019-03-18T10:57:40.527Z,4.60
2019-03-18T11:00:14.806Z,4.10
2019-03-18T11:02:45.033Z,4.60
2019-03-18T11:05:14.447Z,4.30
2019-03-18T11:07:43.369Z,4.33
2019-03-18T11:10:13.604Z,4.07
2019-03-18T11:12:42.457Z,4.20
2019-03-18T11:15:22.342Z,4.10
2019-03-18T11:17:51.197Z,4.30
2019-03-18T11:20:20.051Z,4.70
2019-03-18T11:22:48.955Z,4.40
2019-03-18T11:25:18.031Z,4.10
2019-03-18T11:27:46.889Z,3.90
2019-03-18T11:30:16.970Z,3.90
2019-03-18T11:32:45.997Z,3.50
2019-03-18T11:35:14.840Z,3.53
2019-03-18T11:37:43.837Z,3.90
2019-03-18T11:40:15.255Z,4.57
2019-03-18T11:42:44.091Z,3.80
2019-03-18T11:45:15.810Z,4.23
2019-03-18T11:47:44.836Z,7.73
2019-03-18T11:50:20.343Z,7.33
2019-03-18T11:52:49.283Z,6.33
2019-03-18T11:55:28.705Z,6.40
2019-03-18T11:57:57.541Z,6.70
2019-03-18T12:00:26.889Z,6.03
2019-03-18T12:02:55.770Z,6.27
2019-03-18T12:05:25.707Z,6.90
2019-03-18T12:07:54.577Z,7.20
2019-03-18T12:10:25.665Z,7.37
2019-03-18T12:12:54.178Z,6.67
2019-03-18T12:15:25.373Z,7.37
2019-03-18T12:17:54.362Z,6.80
2019-03-18T12:20:25.275Z,6.60
2019-03-18T12:22:53.735Z,6.10
2019-03-18T12:25:22.621Z,6.27
2019-03-18T12:27:51.475Z,5.70
2019-03-18T12:30:24.924Z,6.07
2019-03-18T12:32:53.817Z,6.20
2019-03-18T12:35:22.657Z,10.50
2019-03-18T12:37:51.599Z,5.87
2019-03-18T12:40:20.511Z,7.17
2019-03-18T12:42:49.346Z,6.53
2019-03-18T12:45:19.297Z,5.13
2019-03-18T12:47:49.110Z,5.37
2019-03-18T12:50:18.878Z,4.70
2019-03-18T12:52:47.917Z,5.57
2019-03-18T12:55:17.001Z,6.33
2019-03-18T12:57:45.844Z,5.60
2019-03-18T13:00:26.377Z,5.77
2019-03-18T13:02:55.222Z,5.67
2019-03-18T13:05:24.068Z,5.30
2019-03-18T13:07:52.965Z,5.03
2019-03-18T13:10:22.264Z,4.23
2019-03-18T13:12:51.266Z,4.37
2019-03-18T13:15:20.946Z,4.20
2019-03-18T13:17:49.783Z,4.33
2019-03-18T13:20:19.527Z,4.00
2019-03-18T13:22:48.453Z,4.30
2019-03-18T13:25:17.300Z,4.13
2019-03-18T13:27:46.144Z,3.97
2019-03-18T13:30:18.742Z,4.27
2019-03-18T13:32:47.579Z,4.50
2019-03-18T13:35:16.541Z,3.30
2019-03-18T13:37:45.523Z,4.03
2019-03-18T13:40:16.711Z,3.80
2019-03-18T13:42:45.683Z,4.30
2019-03-18T13:45:21.754Z,4.03
2019-03-18T13:47:50.636Z,3.77
2019-03-18T13:50:20.402Z,3.43
2019-03-18T13:52:49.292Z,3.30
2019-03-18T13:55:18.162Z,3.83
2019-03-18T13:57:47.104Z,3.57
2019-03-18T14:00:21.022Z,4.90
2019-03-18T14:02:49.886Z,4.17
2019-03-18T14:05:18.776Z,4.80
2019-03-18T14:07:59.795Z,4.63
2019-03-18T14:10:20.205Z,4.67
2019-03-18T14:12:49.039Z,3.33
2019-03-18T14:15:25.097Z,3.73
2019-03-18T14:17:53.936Z,4.73
2019-03-18T14:20:27.011Z,3.20
2019-03-18T14:22:55.894Z,3.67
2019-03-18T14:25:24.723Z,2.70
2019-03-18T14:27:53.584Z,3.53
2019-03-18T14:30:23.358Z,3.40
2019-03-18T14:32:52.196Z,3.27
2019-03-18T14:35:21.868Z,3.20
2019-03-18T14:37:51.236Z,3.67
2019-03-18T14:40:26.562Z,3.73
2019-03-18T14:42:55.477Z,4.03
2019-03-18T14:45:24.728Z,4.27
2019-03-18T14:47:53.564Z,3.13
2019-03-18T14:50:22.449Z,2.70
2019-03-18T14:52:51.302Z,3.23
2019-03-18T14:55:20.134Z,3.10
2019-03-18T14:57:49.044Z,4.20
2019-03-18T15:00:19.683Z,5.17
2019-03-18T15:02:48.544Z,4.63
2019-03-18T15:05:17.445Z,4.00
2019-03-18T15:07:46.374Z,4.57
2019-03-18T15:10:17.704Z,3.30
2019-03-18T15:12:46.582Z,3.53
2019-03-18T15:15:17.349Z,3.07
2019-03-18T15:17:46.194Z,3.90
2019-03-18T15:20:16.810Z,2.97
2019-03-18T15:22:45.653Z,2.97
2019-03-18T15:25:17.267Z,2.53
2019-03-18T15:27:46.150Z,3.23
2019-03-18T15:30:19.909Z,3.10
2019-03-18T15:32:48.858Z,2.83
2019-03-18T15:35:18.273Z,2.70
2019-03-18T15:37:47.306Z,3.40
2019-03-18T15:40:24.947Z,3.13
2019-03-18T15:42:53.782Z,3.23
2019-03-18T15:45:23.137Z,2.77
2019-03-18T15:47:52.025Z,3.37
2019-03-18T15:50:22.170Z,6.10
2019-03-18T15:52:51.033Z,3.57
2019-03-18T15:55:19.925Z,3.97
2019-03-18T15:57:48.810Z,2.97
2019-03-18T16:00:27.993Z,3.03
2019-03-18T16:02:56.873Z,5.20
2019-03-18T16:05:25.711Z,4.63
2019-03-18T16:07:54.619Z,5.70
2019-03-18T16:10:23.479Z,6.50
2019-03-18T16:12:52.311Z,4.00
2019-03-18T16:15:21.234Z,4.73
2019-03-18T16:17:50.067Z,5.40
2019-03-18T16:20:23.484Z,3.70
2019-03-18T16:22:52.377Z,5.53
2019-03-18T16:25:21.328Z,3.73
2019-03-18T16:27:50.181Z,6.10
2019-03-18T16:30:22.563Z,4.00
2019-03-18T16:32:51.412Z,5.17
2019-03-18T16:35:20.464Z,6.60
2019-03-18T16:37:49.352Z,5.50
2019-03-18T16:40:22.748Z,8.33
2019-03-18T16:42:51.642Z,4.80
2019-03-18T16:45:21.237Z,5.83
2019-03-18T16:47:50.081Z,4.80
2019-03-18T16:50:30.408Z,4.77
2019-03-18T16:52:59.234Z,4.47
2019-03-18T16:55:28.078Z,4.47
2019-03-18T16:57:57.839Z,4.43
2019-03-18T17:00:29.864Z,4.83
2019-03-18T17:02:58.706Z,4.20
2019-03-18T17:05:27.583Z,3.27
2019-03-18T17:07:56.410Z,3.90
2019-03-18T17:10:25.269Z,3.67
2019-03-18T17:12:54.295Z,4.03
2019-03-18T17:15:23.473Z,3.60
2019-03-18T17:17:52.310Z,3.03
2019-03-18T17:20:21.205Z,3.60
2019-03-18T17:22:50.571Z,4.30
2019-03-18T17:25:21.104Z,4.57
2019-03-18T17:27:50.088Z,4.20
2019-03-18T17:30:20.699Z,3.60
2019-03-18T17:32:49.621Z,4.50
2019-03-18T17:35:18.547Z,3.37
2019-03-18T17:37:47.397Z,3.63
2019-03-18T17:40:18.299Z,3.87
2019-03-18T17:42:47.413Z,4.00
2019-03-18T17:45:17.262Z,4.07
2019-03-18T17:47:46.414Z,4.10
2019-03-18T17:50:23.509Z,3.60
2019-03-18T17:53:02.386Z,3.97
2019-03-18T17:55:22.877Z,3.50
2019-03-18T17:57:51.773Z,3.23
2019-03-18T18:00:37.599Z,3.27
2019-03-18T18:03:06.471Z,3.20
2019-03-18T18:05:36.122Z,3.80
2019-03-18T18:08:06.591Z,4.37
2019-03-18T18:10:35.626Z,3.30
2019-03-18T18:13:04.561Z,4.33
2019-03-18T18:15:33.413Z,3.70
2019-03-18T18:18:02.297Z,4.07
2019-03-18T18:20:31.126Z,3.00
2019-03-18T18:22:59.982Z,4.27
2019-03-18T18:25:28.880Z,4.03
2019-03-18T18:27:57.824Z,5.63
2019-03-18T18:30:26.656Z,4.70
2019-03-18T18:32:55.586Z,4.80
2019-03-18T18:35:24.443Z,4.20
2019-03-18T18:37:53.294Z,4.43
2019-03-18T18:40:24.857Z,4.30
2019-03-18T18:42:53.670Z,4.50
2019-03-18T18:45:22.566Z,4.37
2019-03-18T18:47:51.460Z,4.20
2019-03-18T18:50:20.314Z,3.87
2019-03-18T18:52:49.167Z,4.10
2019-03-18T18:55:18.098Z,4.20
2019-03-18T18:57:47.635Z,3.50
2019-03-18T19:00:20.819Z,3.50
2019-03-18T19:02:50.078Z,2.80
2019-03-18T19:05:19.536Z,3.20
2019-03-18T19:07:48.370Z,4.07
2019-03-18T19:10:20.741Z,3.17
2019-03-18T19:12:49.583Z,4.00
2019-03-18T19:15:35.843Z,3.30
2019-03-18T19:18:04.794Z,4.00
2019-03-18T19:20:33.635Z,4.33
2019-03-18T19:23:02.526Z,3.60
2019-03-18T19:25:31.355Z,3.53
2019-03-18T19:28:00.199Z,4.57
2019-03-18T19:30:29.145Z,3.63
2019-03-18T19:32:57.979Z,4.10
2019-03-18T19:35:28.719Z,3.57
2019-03-18T19:37:57.806Z,3.93
2019-03-18T19:40:26.645Z,3.70
2019-03-18T19:42:55.513Z,3.30
2019-03-18T19:45:24.401Z,3.20
2019-03-18T19:47:53.669Z,3.30
2019-03-18T19:50:26.690Z,3.40
2019-03-18T19:52:55.670Z,3.40
2019-03-18T19:55:24.526Z,3.43
2019-03-18T19:57:53.354Z,2.60
2019-03-18T20:00:29.541Z,3.27
2019-03-18T20:02:58.370Z,2.70
2019-03-18T20:05:27.226Z,2.97
2019-03-18T20:07:56.275Z,3.47
2019-03-18T20:10:25.148Z,3.50
2019-03-18T20:12:54.023Z,2.93
2019-03-18T20:15:23.023Z,3.30
2019-03-18T20:17:51.867Z,3.40
2019-03-18T20:20:24.243Z,4.03
2019-03-18T20:22:53.135Z,3.93
2019-03-18T20:25:21.954Z,4.23
2019-03-18T20:27:50.785Z,3.33
2019-03-18T20:30:21.672Z,3.37
2019-03-18T20:32:50.502Z,2.83
2019-03-18T20:35:25.762Z,2.80
2019-03-18T20:37:54.595Z,3.20
2019-03-18T20:40:23.440Z,5.20
2019-03-18T20:42:52.421Z,4.27
2019-03-18T20:45:25.642Z,3.17
2019-03-18T20:47:54.613Z,3.00
2019-03-18T20:50:25.191Z,2.97
2019-03-18T20:52:54.022Z,3.10
2019-03-18T20:55:22.854Z,2.97
2019-03-18T20:57:51.718Z,2.70
2019-03-18T21:00:24.271Z,2.90
2019-03-18T21:02:53.096Z,2.60
2019-03-18T21:05:24.669Z,2.20
2019-03-18T21:07:53.318Z,3.10
2019-03-18T21:10:22.370Z,2.90
2019-03-18T21:12:51.261Z,2.83
2019-03-18T21:15:20.260Z,3.60
2019-03-18T21:17:49.117Z,2.70
2019-03-18T21:20:32.773Z,2.83
2019-03-18T21:23:01.664Z,2.83
2019-03-18T21:25:30.545Z,2.50
2019-03-18T21:27:59.480Z,3.30
2019-03-18T21:30:28.327Z,3.10
2019-03-18T21:32:59.634Z,3.77
2019-03-18T21:35:28.495Z,3.30
2019-03-18T21:37:57.344Z,2.47
2019-03-18T21:40:26.186Z,2.57
2019-03-18T21:42:55.174Z,3.07
2019-03-18T21:45:24.736Z,2.83
2019-03-18T21:47:53.586Z,3.43
2019-03-18T21:50:22.726Z,3.60
2019-03-18T21:52:51.562Z,4.10
2019-03-18T21:55:20.398Z,3.40
2019-03-18T21:57:49.265Z,2.70
2019-03-18T22:00:22.784Z,2.70
2019-03-18T22:02:51.615Z,2.73
2019-03-18T22:05:20.593Z,2.70
2019-03-18T22:07:49.447Z,2.23
2019-03-18T22:10:21.553Z,2.80
2019-03-18T22:12:50.464Z,2.30
2019-03-18T22:15:19.512Z,2.40
2019-03-18T22:17:48.351Z,3.00
2019-03-18T22:20:20.569Z,2.67
2019-03-18T22:22:49.423Z,2.83
2019-03-18T22:25:18.265Z,2.97
2019-03-18T22:27:47.146Z,2.53
2019-03-18T22:30:17.862Z,2.70
2019-03-18T22:32:46.996Z,2.33
2019-03-18T22:35:16.032Z,3.07
2019-03-18T22:37:44.864Z,2.63
2019-03-18T22:40:17.686Z,2.60
2019-03-18T22:42:46.566Z,2.67
2019-03-18T22:45:17.481Z,2.10
2019-03-18T22:47:46.429Z,2.50
2019-03-18T22:50:18.941Z,4.10
2019-03-18T22:52:47.802Z,3.10
2019-03-18T22:55:16.658Z,2.97
2019-03-18T22:57:45.545Z,2.60
2019-03-18T23:00:26.333Z,3.57
2019-03-18T23:02:55.524Z,3.40
2019-03-18T23:05:24.355Z,2.93
2019-03-18T23:07:53.196Z,3.57
2019-03-18T23:10:22.105Z,3.50
2019-03-18T23:12:51.807Z,4.03
2019-03-18T23:15:20.674Z,3.13
2019-03-18T23:17:49.521Z,3.40
2019-03-18T23:20:18.362Z,3.70
2019-03-18T23:22:47.493Z,3.83
2019-03-18T23:25:16.319Z,4.60
2019-03-18T23:27:45.155Z,6.30
2019-03-18T23:30:15.264Z,8.00
2019-03-18T23:32:44.104Z,4.70
2019-03-18T23:35:12.940Z,4.20
2019-03-18T23:37:41.806Z,4.47
2019-03-18T23:40:12.351Z,3.70
2019-03-18T23:42:41.192Z,4.07
2019-03-18T23:45:10.975Z,5.50
2019-03-18T23:47:39.829Z,4.47
2019-03-18T23:50:11.603Z,5.20
2019-03-18T23:52:40.498Z,4.50
2019-03-18T23:55:18.459Z,4.77
2019-03-18T23:57:40.533Z,3.53
